Time;durP1;ratioP1;P1;durP2;ratioP2;P2;SDS_P1;SDS_P2;PMS_P1;PMS_P2;Temp;Humidity;BMP_temperature;BMP_pressure;BME280_temperature;BME280_humidity;BME280_pressure;Samples;Min_cycle;Max_cycle;Signal;HPM_P1;HPM_P2
2022/07/14 00:02:22;;;;;;;;;;;19.60;93.50;;;;;;5036165;28;19917;-77
2022/07/14 00:04:48;;;;;;;;;;;19.60;93.10;;;;;;5035546;28;19909;-77
2022/07/14 00:07:14;;;;;;;;;;;19.70;93.40;;;;;;5041448;28;20366;-77
2022/07/14 00:09:39;;;;;;;;;;;19.60;93.80;;;;;;5035683;28;19910;-77
2022/07/14 00:12:05;;;;;;;;;;;19.50;93.50;;;;;;5032841;28;19927;-77
2022/07/14 00:14:30;;;;;;;;;;;19.50;93.40;;;;;;5032821;28;20362;-77
2022/07/14 00:16:56;;;;;;;;;;;19.50;93.70;;;;;;5041838;28;19908;-77
2022/07/14 00:19:21;;;;;;;;;;;19.40;93.70;;;;;;5052582;28;19954;-77
2022/07/14 00:21:47;;;;;;;;;;;19.40;93.80;;;;;;5051630;28;19956;-77
2022/07/14 00:24:13;;;;;;;;;;;19.40;93.40;;;;;;5050470;28;19991;-77
2022/07/14 00:26:42;;;;;;;;;;;19.20;93.20;;;;;;5044404;28;20263;-77
2022/07/14 00:29:08;;;;;;;;;;;19.00;94.60;;;;;;5036354;28;20020;-77
2022/07/14 00:31:33;;;;;;;;;;;18.80;95.10;;;;;;5041767;28;19948;-77
2022/07/14 00:34:00;;;;;;;;;;;18.70;95.30;;;;;;5037811;28;20259;-77
2022/07/14 00:36:28;;;;;;;;;;;18.60;95.10;;;;;;5032742;28;19920;-77
2022/07/14 00:38:55;;;;;;;;;;;18.60;95.10;;;;;;5031682;28;20412;-77
2022/07/14 00:41:21;;;;;;;;;;;18.60;94.90;;;;;;5033233;28;19913;-77
2022/07/14 00:43:46;;;;;;;;;;;18.60;94.80;;;;;;5051197;28;19912;-77
2022/07/14 00:46:11;;;;;;;;;;;18.50;94.50;;;;;;5038707;28;19909;-77
2022/07/14 00:48:37;;;;;;;;;;;18.60;94.10;;;;;;5032827;28;20017;-77
2022/07/14 00:51:03;;;;;;;;;;;18.60;93.60;;;;;;5032881;28;19913;-77
2022/07/14 00:53:29;;;;;;;;;;;18.50;93.00;;;;;;5020026;28;19909;-77
2022/07/14 00:55:54;;;;;;;;;;;18.60;93.00;;;;;;5037934;28;19909;-77
2022/07/14 00:58:20;;;;;;;;;;;18.60;92.30;;;;;;5051709;28;19912;-77
2022/07/14 01:00:46;;;;;;;;;;;18.60;92.40;;;;;;5051790;28;19913;-77
2022/07/14 01:03:11;;;;;;;;;;;18.60;92.10;;;;;;5038770;28;20286;-77
2022/07/14 01:05:37;;;;;;;;;;;18.50;92.30;;;;;;5032543;28;19913;-77
2022/07/14 01:08:03;;;;;;;;;;;18.50;91.80;;;;;;5032875;28;19913;-77
2022/07/14 01:10:29;;;;;;;;;;;18.50;90.60;;;;;;5032172;28;19968;-77
2022/07/14 01:12:57;;;;;;;;;;;18.50;90.60;;;;;;5036420;28;19920;-77
2022/07/14 01:15:22;;;;;;;;;;;18.30;90.50;;;;;;5050935;28;20428;-77
2022/07/14 01:17:48;;;;;;;;;;;18.30;90.50;;;;;;5051317;28;19916;-77
2022/07/14 01:20:14;;;;;;;;;;;18.30;90.00;;;;;;5051601;28;19999;-77
2022/07/14 01:22:40;;;;;;;;;;;18.40;89.00;;;;;;5046594;28;19924;-77
2022/07/14 01:25:07;;;;;;;;;;;18.30;88.40;;;;;;5032894;28;19910;-77
2022/07/14 01:27:33;;;;;;;;;;;18.30;88.90;;;;;;5045970;28;19956;-77
2022/07/14 01:29:58;;;;;;;;;;;18.10;88.70;;;;;;5051374;28;19909;-77
2022/07/14 01:32:24;;;;;;;;;;;18.20;88.40;;;;;;5050736;28;20380;-77
2022/07/14 01:34:49;;;;;;;;;;;18.30;90.00;;;;;;5050720;28;19908;-77
2022/07/14 01:37:15;;;;;;;;;;;18.20;90.00;;;;;;5051027;28;20324;-77
2022/07/14 01:39:40;;;;;;;;;;;18.20;90.70;;;;;;5051268;28;20378;-78
2022/07/14 01:42:06;;;;;;;;;;;18.40;90.40;;;;;;5050444;28;20417;-77
2022/07/14 01:44:31;;;;;;;;;;;18.70;90.00;;;;;;5048494;28;19947;-77
2022/07/14 01:46:56;;;;;;;;;;;18.60;90.00;;;;;;5031846;28;19955;-77
2022/07/14 01:49:22;;;;;;;;;;;18.60;90.00;;;;;;5030707;28;19943;-77
2022/07/14 01:51:48;;;;;;;;;;;18.50;90.40;;;;;;5031164;28;20282;-77
2022/07/14 01:54:13;;;;;;;;;;;18.20;90.50;;;;;;5033461;28;20247;-77
2022/07/14 01:56:40;;;;;;;;;;;18.00;90.80;;;;;;5031757;28;19909;-77
2022/07/14 01:59:05;;;;;;;;;;;17.90;91.60;;;;;;5031936;28;19967;-77
2022/07/14 02:01:40;;;;;;;;;;;17.90;91.70;;;;;;5044385;28;20377;-77
2022/07/14 02:04:06;;;;;;;;;;;17.60;92.60;;;;;;5048765;28;20297;-77
2022/07/14 02:06:32;;;;;;;;;;;17.70;92.10;;;;;;5050772;28;19909;-77
2022/07/14 02:08:58;;;;;;;;;;;17.30;93.40;;;;;;5040605;28;19916;-77
2022/07/14 02:14:07;;;;;;;;;;;16.90;94.00;;;;;;5050326;28;19916;-77
2022/07/14 02:16:33;;;;;;;;;;;16.80;94.60;;;;;;5050676;28;20402;-77
2022/07/14 02:18:59;;;;;;;;;;;16.60;94.50;;;;;;5050513;28;19920;-77
2022/07/14 02:21:25;;;;;;;;;;;16.60;94.40;;;;;;5051701;28;19909;-77
2022/07/14 02:23:51;;;;;;;;;;;16.70;93.80;;;;;;5035139;28;19936;-77
2022/07/14 02:26:16;;;;;;;;;;;16.50;93.80;;;;;;5034686;28;19916;-77
2022/07/14 02:28:42;;;;;;;;;;;16.60;93.20;;;;;;5036929;28;19909;-77
2022/07/14 02:31:09;;;;;;;;;;;16.60;92.80;;;;;;5054538;28;19909;-77
2022/07/14 02:33:35;;;;;;;;;;;16.70;92.70;;;;;;5053297;28;20258;-77
2022/07/14 02:36:00;;;;;;;;;;;16.80;92.40;;;;;;5054614;28;19909;-77
2022/07/14 02:38:26;;;;;;;;;;;16.70;92.40;;;;;;5053543;28;19909;-77
2022/07/14 02:40:52;;;;;;;;;;;16.50;94.30;;;;;;5042128;28;20286;-77
2022/07/14 02:43:17;;;;;;;;;;;16.20;94.40;;;;;;5052974;28;19995;-77
2022/07/14 02:45:43;;;;;;;;;;;16.10;94.40;;;;;;5054128;28;19913;-76
2022/07/14 02:48:08;;;;;;;;;;;15.80;95.20;;;;;;5054109;28;19915;-77
2022/07/14 02:50:36;;;;;;;;;;;15.70;95.20;;;;;;5054224;28;20370;-76
2022/07/14 02:53:02;;;;;;;;;;;15.60;95.20;;;;;;5046357;28;20378;-77
2022/07/14 02:55:28;;;;;;;;;;;15.50;95.70;;;;;;5031707;28;19913;-77
2022/07/14 02:57:54;;;;;;;;;;;15.70;95.00;;;;;;5034386;28;19939;-77
2022/07/14 03:00:19;;;;;;;;;;;15.90;94.10;;;;;;5034996;28;20000;-77
2022/07/14 03:02:45;;;;;;;;;;;16.00;93.80;;;;;;5033960;28;19921;-77
2022/07/14 03:05:11;;;;;;;;;;;16.00;93.50;;;;;;5032838;28;19909;-77
2022/07/14 03:07:36;;;;;;;;;;;16.00;93.90;;;;;;5033631;28;19921;-77
2022/07/14 03:10:02;;;;;;;;;;;15.70;94.20;;;;;;5034665;28;20319;-77
2022/07/14 03:12:27;;;;;;;;;;;15.50;95.20;;;;;;5034128;28;19913;-77
2022/07/14 03:14:53;;;;;;;;;;;15.50;94.40;;;;;;5033875;28;19963;-77
2022/07/14 03:17:18;;;;;;;;;;;16.00;92.80;;;;;;5032922;28;20350;-77
2022/07/14 03:19:44;;;;;;;;;;;16.40;92.10;;;;;;5044651;28;19915;-77
2022/07/14 03:22:09;;;;;;;;;;;16.50;91.80;;;;;;5042534;28;19967;-77
2022/07/14 03:24:35;;;;;;;;;;;16.40;91.70;;;;;;5034300;28;20374;-77
2022/07/14 03:27:00;;;;;;;;;;;16.40;91.80;;;;;;5036823;28;19948;-77
2022/07/14 03:29:27;;;;;;;;;;;16.40;91.70;;;;;;5033697;28;20373;-77
2022/07/14 03:31:53;;;;;;;;;;;16.40;91.70;;;;;;5049018;28;19913;-77
2022/07/14 03:34:18;;;;;;;;;;;16.30;91.90;;;;;;5052572;28;19954;-77
2022/07/14 03:36:44;;;;;;;;;;;16.30;91.90;;;;;;5053194;28;19909;-77
2022/07/14 03:39:09;;;;;;;;;;;16.20;91.80;;;;;;5038217;28;19924;-77
2022/07/14 03:41:35;;;;;;;;;;;16.10;92.00;;;;;;5034959;28;19943;-77
2022/07/14 03:44:01;;;;;;;;;;;16.10;92.10;;;;;;5032372;28;19909;-77
2022/07/14 03:46:27;;;;;;;;;;;16.20;91.50;;;;;;5052856;28;19997;-77
2022/07/14 03:48:52;;;;;;;;;;;16.30;91.40;;;;;;5053228;28;19944;-77
2022/07/14 03:51:18;;;;;;;;;;;16.50;91.20;;;;;;5052466;28;19919;-77
2022/07/14 03:53:44;;;;;;;;;;;16.50;91.60;;;;;;5037757;28;20397;-77
2022/07/14 03:56:09;;;;;;;;;;;16.40;91.70;;;;;;5037912;28;19908;-77
2022/07/14 03:58:35;;;;;;;;;;;16.30;92.00;;;;;;5023035;28;20004;-77
2022/07/14 04:01:01;;;;;;;;;;;16.20;92.50;;;;;;5043098;28;19915;-77
2022/07/14 04:03:27;;;;;;;;;;;16.10;92.60;;;;;;5025817;28;20377;-77
2022/07/14 04:05:52;;;;;;;;;;;16.30;92.20;;;;;;5033623;28;20000;-77
2022/07/14 04:08:18;;;;;;;;;;;16.20;92.70;;;;;;5032001;28;19953;-77
2022/07/14 04:10:43;;;;;;;;;;;16.20;93.00;;;;;;5033483;28;19964;-77
2022/07/14 04:13:09;;;;;;;;;;;16.30;92.90;;;;;;5032403;28;19949;-77
2022/07/14 04:15:37;;;;;;;;;;;16.40;92.70;;;;;;5033104;28;19917;-77
2022/07/14 04:18:02;;;;;;;;;;;16.50;92.50;;;;;;5033493;28;20286;-77
2022/07/14 04:20:28;;;;;;;;;;;16.50;92.90;;;;;;5033490;28;19909;-77
2022/07/14 04:22:54;;;;;;;;;;;16.50;92.80;;;;;;5049904;28;19913;-77
2022/07/14 04:25:19;;;;;;;;;;;16.50;92.70;;;;;;5034556;28;20393;-77
2022/07/14 04:27:44;;;;;;;;;;;16.60;93.10;;;;;;5034295;28;20279;-77
2022/07/14 04:30:11;;;;;;;;;;;16.50;94.00;;;;;;5030486;28;19924;-77
2022/07/14 04:32:37;;;;;;;;;;;16.40;94.20;;;;;;5034002;28;20305;-77
2022/07/14 04:35:03;;;;;;;;;;;16.50;93.30;;;;;;5037357;28;19921;-78
2022/07/14 04:37:29;;;;;;;;;;;16.60;93.60;;;;;;5052690;28;19909;-76
2022/07/14 04:39:54;;;;;;;;;;;16.60;93.40;;;;;;5053121;28;19908;-77
2022/07/14 04:42:21;;;;;;;;;;;16.70;92.90;;;;;;5045887;28;19948;-76
2022/07/14 04:44:47;;;;;;;;;;;16.60;94.20;;;;;;5050974;28;19920;-77
2022/07/14 04:47:12;;;;;;;;;;;16.50;95.80;;;;;;5051653;28;19913;-77
2022/07/14 04:52:21;;;;;;;;;;;16.30;96.90;;;;;;5041012;28;20475;-77
2022/07/14 04:54:47;;;;;;;;;;;16.20;97.40;;;;;;5034761;28;19999;-78
2022/07/14 04:57:13;;;;;;;;;;;16.30;96.90;;;;;;5030141;28;19917;-77
2022/07/14 04:59:38;;;;;;;;;;;16.50;96.40;;;;;;5032891;28;19935;-78
2022/07/14 05:02:04;;;;;;;;;;;16.50;96.70;;;;;;5051845;28;19920;-78
2022/07/14 05:04:30;;;;;;;;;;;16.50;97.50;;;;;;5049504;28;20295;-77
2022/07/14 05:06:56;;;;;;;;;;;16.40;98.40;;;;;;5033211;28;20003;-77
2022/07/14 05:09:25;;;;;;;;;;;16.40;99.10;;;;;;5036424;28;19935;-77
2022/07/14 05:11:51;;;;;;;;;;;16.50;98.70;;;;;;5048359;28;19948;-77
2022/07/14 05:14:16;;;;;;;;;;;16.70;97.90;;;;;;5047384;28;19909;-77
2022/07/14 05:16:44;;;;;;;;;;;17.00;99.90;;;;;;5053313;28;19948;-77
2022/07/14 05:19:09;;;;;;;;;;;17.10;99.90;;;;;;5051978;28;19913;-78
2022/07/14 05:21:35;;;;;;;;;;;17.20;99.90;;;;;;5051163;28;19915;-78
2022/07/14 05:24:00;;;;;;;;;;;17.20;99.90;;;;;;5050579;28;19919;-78
2022/07/14 05:26:26;;;;;;;;;;;17.20;99.90;;;;;;5050741;28;20003;-77
2022/07/14 05:28:52;;;;;;;;;;;17.30;99.90;;;;;;5035796;28;19910;-77
2022/07/14 05:31:17;;;;;;;;;;;17.40;99.90;;;;;;5037273;28;19909;-77
2022/07/14 05:33:43;;;;;;;;;;;17.60;99.90;;;;;;5038317;28;20397;-78
2022/07/14 05:36:08;;;;;;;;;;;17.80;99.90;;;;;;5031505;28;19909;-77
2022/07/14 05:38:34;;;;;;;;;;;17.90;99.90;;;;;;5026186;28;19977;-77
2022/07/14 05:41:01;;;;;;;;;;;18.10;99.90;;;;;;5044919;28;19958;-77
2022/07/14 05:43:27;;;;;;;;;;;18.20;99.90;;;;;;5051019;28;20487;-77
2022/07/14 05:45:52;;;;;;;;;;;18.40;99.90;;;;;;5051083;28;19958;-77
2022/07/14 05:48:18;;;;;;;;;;;18.60;99.20;;;;;;5050898;28;20294;-77
2022/07/14 05:50:43;;;;;;;;;;;19.20;97.30;;;;;;5025021;28;19913;-77
2022/07/14 05:53:09;;;;;;;;;;;20.60;96.80;;;;;;5035339;28;19915;-78
2022/07/14 05:55:34;;;;;;;;;;;21.20;95.30;;;;;;5031323;28;19909;-77
2022/07/14 05:58:00;;;;;;;;;;;20.40;96.00;;;;;;5034314;28;20514;-79
2022/07/14 06:00:25;;;;;;;;;;;20.70;96.50;;;;;;5029837;28;19909;-77
2022/07/14 06:02:51;;;;;;;;;;;21.10;93.60;;;;;;5050227;28;19999;-77
2022/07/14 06:05:16;;;;;;;;;;;21.00;92.20;;;;;;5050156;28;19955;-77
2022/07/14 06:07:42;;;;;;;;;;;22.50;87.40;;;;;;5050448;28;19909;-77
2022/07/14 06:10:10;;;;;;;;;;;22.50;85.30;;;;;;5050646;28;20263;-77
2022/07/14 06:12:37;;;;;;;;;;;22.10;85.80;;;;;;5032999;28;19960;-77
2022/07/14 06:15:07;;;;;;;;;;;21.90;88.50;;;;;;5030994;28;20278;-77
2022/07/14 06:17:33;;;;;;;;;;;22.00;85.90;;;;;;5031543;28;19945;-77
2022/07/14 06:20:06;;;;;;;;;;;22.50;87.80;;;;;;5031558;28;19917;-77
2022/07/14 06:22:36;;;;;;;;;;;22.50;84.10;;;;;;5034617;28;20388;-77
2022/07/14 06:25:02;;;;;;;;;;;22.80;82.00;;;;;;5031266;28;19917;-77
2022/07/14 06:27:27;;;;;;;;;;;23.70;79.30;;;;;;5029087;28;19910;-77
2022/07/14 06:29:54;;;;;;;;;;;24.50;80.70;;;;;;5029506;28;20012;-77
2022/07/14 06:32:19;;;;;;;;;;;24.60;79.80;;;;;;5048813;28;19909;-77
2022/07/14 06:34:48;;;;;;;;;;;24.90;81.60;;;;;;5049819;28;19919;-77
2022/07/14 06:37:15;;;;;;;;;;;24.90;78.70;;;;;;5047577;28;19909;-78
2022/07/14 06:39:41;;;;;;;;;;;24.50;80.80;;;;;;5047519;28;19913;-77
2022/07/14 06:42:07;;;;;;;;;;;24.60;77.00;;;;;;5048305;28;19913;-77
2022/07/14 06:44:33;;;;;;;;;;;25.40;76.70;;;;;;5049817;28;20014;-77
2022/07/14 06:46:58;;;;;;;;;;;24.70;78.20;;;;;;5046432;28;20425;-77
2022/07/14 06:49:25;;;;;;;;;;;24.70;78.80;;;;;;5033092;28;19908;-77
2022/07/14 06:51:50;;;;;;;;;;;25.20;76.70;;;;;;5049604;28;19935;-77
2022/07/14 06:54:16;;;;;;;;;;;25.90;76.90;;;;;;5049482;28;20373;-78
2022/07/14 06:56:42;;;;;;;;;;;25.90;75.10;;;;;;5046668;28;20000;-78
2022/07/14 06:59:07;;;;;;;;;;;25.80;72.90;;;;;;5030558;28;19910;-78
2022/07/14 07:01:33;;;;;;;;;;;25.80;73.10;;;;;;5043390;28;19923;-78
2022/07/14 07:03:59;;;;;;;;;;;26.30;69.40;;;;;;5049678;28;19935;-78
2022/07/14 07:09:09;;;;;;;;;;;26.60;73.30;;;;;;5053663;28;19935;-78
2022/07/14 07:11:35;;;;;;;;;;;26.70;73.70;;;;;;5053274;28;19921;-77
2022/07/14 07:14:01;;;;;;;;;;;27.20;67.60;;;;;;5051863;28;19908;-77
2022/07/14 07:16:27;;;;;;;;;;;28.20;65.60;;;;;;5053684;28;19943;-78
2022/07/14 07:18:52;;;;;;;;;;;28.70;65.00;;;;;;5053621;28;19931;-77
2022/07/14 07:21:20;;;;;;;;;;;28.20;65.50;;;;;;5041888;28;20015;-77
2022/07/14 07:23:49;;;;;;;;;;;28.30;63.10;;;;;;5033558;28;20374;-77
2022/07/14 07:26:14;;;;;;;;;;;28.40;61.70;;;;;;5034463;28;19909;-77
2022/07/14 07:28:40;;;;;;;;;;;28.90;58.90;;;;;;5033575;28;19932;-77
2022/07/14 07:31:06;;;;;;;;;;;29.50;59.30;;;;;;5047162;28;21180;-77
2022/07/14 07:33:32;;;;;;;;;;;29.90;58.50;;;;;;5049723;28;19992;-78
2022/07/14 07:35:58;;;;;;;;;;;29.80;59.60;;;;;;5053315;28;19909;-78
2022/07/14 07:38:24;;;;;;;;;;;29.90;58.50;;;;;;5051733;28;19913;-77
2022/07/14 07:40:49;;;;;;;;;;;29.10;61.00;;;;;;5052125;28;19955;-77
2022/07/14 07:43:15;;;;;;;;;;;28.30;61.50;;;;;;5052128;28;20274;-77
2022/07/14 07:45:40;;;;;;;;;;;27.80;61.80;;;;;;5053181;28;19935;-78
2022/07/14 07:48:06;;;;;;;;;;;27.70;65.00;;;;;;5052831;28;20360;-78
2022/07/14 07:50:33;;;;;;;;;;;27.40;67.70;;;;;;5053206;28;19909;-78
2022/07/14 07:52:58;;;;;;;;;;;27.50;71.20;;;;;;5052117;28;20324;-78
2022/07/14 07:55:24;;;;;;;;;;;27.50;68.50;;;;;;5031520;28;19909;-78
2022/07/14 07:57:49;;;;;;;;;;;27.70;72.70;;;;;;5041150;28;20437;-78
2022/07/14 08:00:15;;;;;;;;;;;28.10;72.40;;;;;;5038304;28;19909;-78
2022/07/14 08:02:44;;;;;;;;;;;29.30;69.60;;;;;;5052196;28;19917;-78
2022/07/14 08:05:10;;;;;;;;;;;30.90;62.80;;;;;;5052323;28;19909;-78
2022/07/14 08:07:35;;;;;;;;;;;31.60;64.50;;;;;;5052678;28;19971;-78
2022/07/14 08:10:01;;;;;;;;;;;32.00;56.90;;;;;;5052263;28;19909;-78
2022/07/14 08:12:26;;;;;;;;;;;32.00;61.30;;;;;;5052170;28;19920;-78
2022/07/14 08:14:52;;;;;;;;;;;31.80;57.10;;;;;;5052011;28;19909;-79
2022/07/14 08:17:18;;;;;;;;;;;32.20;55.00;;;;;;5026354;28;19913;-78
2022/07/14 08:19:44;;;;;;;;;;;32.10;57.00;;;;;;5050244;28;20006;-78
2022/07/14 08:22:09;;;;;;;;;;;32.40;53.80;;;;;;5052131;28;19952;-78
2022/07/14 08:24:35;;;;;;;;;;;32.80;56.60;;;;;;5051641;28;20280;-78
2022/07/14 08:27:00;;;;;;;;;;;32.70;58.20;;;;;;5045924;28;19916;-78
2022/07/14 08:29:26;;;;;;;;;;;34.00;56.20;;;;;;5035862;28;19917;-78
2022/07/14 08:31:51;;;;;;;;;;;33.50;54.30;;;;;;5049059;28;20180;-78
2022/07/14 08:34:17;;;;;;;;;;;32.70;52.40;;;;;;5050323;28;20007;-79
2022/07/14 08:36:42;;;;;;;;;;;32.70;51.80;;;;;;5050635;28;19962;-79
2022/07/14 08:39:08;;;;;;;;;;;31.80;53.00;;;;;;5051746;28;19909;-79
2022/07/14 08:41:35;;;;;;;;;;;32.30;55.90;;;;;;5051528;28;19912;-79
2022/07/14 08:44:00;;;;;;;;;;;33.10;52.10;;;;;;5051435;28;19913;-79
2022/07/14 08:46:26;;;;;;;;;;;33.20;49.70;;;;;;5051691;28;19916;-78
2022/07/14 08:48:53;;;;;;;;;;;33.40;49.50;;;;;;5051900;28;19915;-79
2022/07/14 08:51:19;;;;;;;;;;;33.50;48.90;;;;;;5051447;28;19909;-78
2022/07/14 08:53:45;;;;;;;;;;;33.40;50.80;;;;;;5050388;28;19908;-78
2022/07/14 08:56:11;;;;;;;;;;;33.60;48.40;;;;;;5051869;28;19909;-78
2022/07/14 08:58:40;;;;;;;;;;;34.50;51.90;;;;;;5031757;28;19913;-79
2022/07/14 09:01:06;;;;;;;;;;;34.60;51.50;;;;;;5048463;28;19908;-77
2022/07/14 09:03:31;;;;;;;;;;;35.10;45.60;;;;;;5050674;28;19916;-79
2022/07/14 09:05:57;;;;;;;;;;;35.20;50.00;;;;;;5045270;28;19958;-78
2022/07/14 09:08:23;;;;;;;;;;;35.40;47.10;;;;;;5051335;28;20425;-78
2022/07/14 09:10:48;;;;;;;;;;;35.00;46.20;;;;;;5051409;28;19924;-79
2022/07/14 09:13:17;;;;;;;;;;;35.00;49.00;;;;;;5034876;28;19956;-78
2022/07/14 09:15:46;;;;;;;;;;;35.40;49.00;;;;;;5055191;28;19913;-78
2022/07/14 09:18:27;;;;;;;;;;;35.10;48.70;;;;;;5055285;28;20293;-76
2022/07/14 09:20:54;;;;;;;;;;;34.30;49.80;;;;;;5055255;28;20441;-79
2022/07/14 09:23:29;;;;;;;;;;;34.40;50.80;;;;;;5054418;28;19913;-77
2022/07/14 09:26:11;;;;;;;;;;;34.50;49.80;;;;;;5054864;28;19916;-78
2022/07/14 09:28:40;;;;;;;;;;;34.10;48.50;;;;;;5028334;28;19916;-78
2022/07/14 09:31:21;;;;;;;;;;;33.90;51.50;;;;;;5046394;28;19912;-75
2022/07/14 09:33:47;;;;;;;;;;;33.00;50.30;;;;;;5055418;28;19931;-77
2022/07/14 09:36:26;;;;;;;;;;;33.40;53.30;;;;;;5047320;28;19954;-78
2022/07/14 09:38:55;;;;;;;;;;;33.20;50.70;;;;;;5055300;28;19963;-77
2022/07/14 09:41:21;;;;;;;;;;;32.80;53.00;;;;;;5054209;28;19909;-77
2022/07/14 09:44:05;;;;;;;;;;;32.40;54.20;;;;;;5049192;28;20370;-77
2022/07/14 09:46:47;;;;;;;;;;;32.20;53.50;;;;;;5031123;28;19955;-77
2022/07/14 09:49:13;;;;;;;;;;;32.80;57.90;;;;;;5038051;28;19916;-77
2022/07/14 09:51:54;;;;;;;;;;;32.30;51.70;;;;;;5041588;28;19909;-78
2022/07/14 09:54:38;;;;;;;;;;;32.60;56.60;;;;;;5029159;28;21259;-78
2022/07/14 09:57:12;;;;;;;;;;;33.20;57.10;;;;;;5034562;28;20010;-78
2022/07/14 09:59:49;;;;;;;;;;;33.80;54.40;;;;;;5025752;28;19909;-78
2022/07/14 10:02:15;;;;;;;;;;;33.80;49.70;;;;;;5030309;28;19917;-77
2022/07/14 10:04:42;;;;;;;;;;;34.20;48.10;;;;;;5039719;28;19909;-77
2022/07/14 10:07:07;;;;;;;;;;;33.50;49.50;;;;;;5036045;28;19979;-77
2022/07/14 10:09:37;;;;;;;;;;;32.90;47.40;;;;;;5033251;28;20370;-77
2022/07/14 10:12:03;;;;;;;;;;;32.70;49.80;;;;;;5033348;28;19979;-76
2022/07/14 10:14:29;;;;;;;;;;;32.70;48.50;;;;;;5021622;28;19963;-77
2022/07/14 10:16:55;;;;;;;;;;;32.20;48.20;;;;;;5032050;28;19909;-77
2022/07/14 10:19:20;;;;;;;;;;;31.90;51.00;;;;;;5030367;28;19909;-77
2022/07/14 10:21:46;;;;;;;;;;;32.60;54.40;;;;;;5034245;28;20050;-77
2022/07/14 10:24:12;;;;;;;;;;;34.10;51.30;;;;;;5053432;28;19909;-78
2022/07/14 10:26:38;;;;;;;;;;;35.00;50.80;;;;;;5052014;28;19921;-78
2022/07/14 10:29:05;;;;;;;;;;;35.30;50.80;;;;;;5032721;28;19923;-78
2022/07/14 10:31:49;;;;;;;;;;;36.10;48.30;;;;;;5053292;28;19913;-77
2022/07/14 10:34:15;;;;;;;;;;;36.70;44.10;;;;;;5054714;28;19935;-78
2022/07/14 10:36:47;;;;;;;;;;;36.10;40.10;;;;;;5054897;28;19913;-78
2022/07/14 10:39:36;;;;;;;;;;;36.10;40.60;;;;;;5052826;28;22457;-80
2022/07/14 10:42:08;;;;;;;;;;;36.10;37.20;;;;;;5056942;28;19912;-78
2022/07/14 10:44:35;;;;;;;;;;;35.50;40.90;;;;;;5057942;28;19912;-77
2022/07/14 10:47:11;;;;;;;;;;;35.50;38.20;;;;;;5059326;28;19909;-77
2022/07/14 10:49:55;;;;;;;;;;;35.80;41.50;;;;;;5033621;28;20251;-78
2022/07/14 10:52:25;;;;;;;;;;;36.50;39.10;;;;;;5035044;28;19959;-78
2022/07/14 10:55:07;;;;;;;;;;;36.30;38.10;;;;;;5038773;28;20003;-78
2022/07/14 10:57:33;;;;;;;;;;;36.60;39.10;;;;;;5042988;28;20294;-77
2022/07/14 10:59:59;;;;;;;;;;;36.60;40.50;;;;;;5037016;28;19916;-78
2022/07/14 11:02:24;;;;;;;;;;;37.10;39.40;;;;;;5048047;28;19917;-78
2022/07/14 11:04:59;;;;;;;;;;;37.00;38.20;;;;;;5039772;28;19909;-77
2022/07/14 11:07:38;;;;;;;;;;;36.60;38.30;;;;;;5037704;28;19960;-78
2022/07/14 11:10:04;;;;;;;;;;;36.40;39.40;;;;;;5032643;28;20003;-79
2022/07/14 11:12:30;;;;;;;;;;;36.60;39.20;;;;;;5029777;28;20088;-76
2022/07/14 11:14:56;;;;;;;;;;;36.30;40.10;;;;;;5026254;28;19913;-77
2022/07/14 11:17:38;;;;;;;;;;;36.00;38.10;;;;;;5028653;28;20283;-76
2022/07/14 11:20:05;;;;;;;;;;;36.30;37.90;;;;;;5047072;28;20277;-77
2022/07/14 11:22:30;;;;;;;;;;;36.70;39.40;;;;;;5052242;28;19919;-76
2022/07/14 11:24:59;;;;;;;;;;;37.00;38.90;;;;;;5057479;28;20000;-77
2022/07/14 11:27:32;;;;;;;;;;;36.40;37.30;;;;;;5042467;28;19909;-77
2022/07/14 11:29:58;;;;;;;;;;;37.00;40.00;;;;;;5035716;28;19913;-76
2022/07/14 11:32:30;;;;;;;;;;;36.70;36.70;;;;;;5054475;28;19913;-77
2022/07/14 11:37:57;;;;;;;;;;;35.00;41.40;;;;;;5055580;28;19915;-77
2022/07/14 11:40:44;;;;;;;;;;;36.30;35.10;;;;;;5046406;28;19909;-76
2022/07/14 11:43:36;;;;;;;;;;;36.70;37.20;;;;;;5030648;28;20282;-77
2022/07/14 11:46:03;;;;;;;;;;;36.40;37.20;;;;;;5041257;28;19909;-75
2022/07/14 11:48:30;;;;;;;;;;;36.80;40.80;;;;;;5038260;28;19964;-78
2022/07/14 11:51:06;;;;;;;;;;;36.80;38.10;;;;;;5037585;28;20004;-77
2022/07/14 11:53:32;;;;;;;;;;;37.10;39.50;;;;;;5032518;28;19932;-76
2022/07/14 11:55:58;;;;;;;;;;;37.00;34.20;;;;;;5035669;28;19909;-77
2022/07/14 11:58:24;;;;;;;;;;;36.60;37.80;;;;;;5034713;28;19920;-77
2022/07/14 12:01:00;;;;;;;;;;;36.30;37.00;;;;;;5040185;28;19909;-77
2022/07/14 12:03:25;;;;;;;;;;;37.00;40.10;;;;;;5034756;28;19960;-76
2022/07/14 12:05:54;;;;;;;;;;;37.30;36.00;;;;;;5035876;28;19963;-78
2022/07/14 12:08:30;;;;;;;;;;;37.00;41.00;;;;;;5041586;28;19956;-78
2022/07/14 12:11:09;;;;;;;;;;;36.70;39.40;;;;;;5055436;28;19923;-77
2022/07/14 12:13:46;;;;;;;;;;;36.60;39.40;;;;;;5055909;28;19948;-78
2022/07/14 12:16:11;;;;;;;;;;;37.00;37.30;;;;;;5056275;28;19915;-78
2022/07/14 12:18:37;;;;;;;;;;;36.80;36.50;;;;;;5054257;28;19948;-78
2022/07/14 12:21:02;;;;;;;;;;;37.00;35.50;;;;;;5055232;28;19909;-77
2022/07/14 12:23:28;;;;;;;;;;;36.20;35.90;;;;;;5051830;28;20282;-76
2022/07/14 12:25:58;;;;;;;;;;;35.80;35.10;;;;;;5053471;28;19919;-77
2022/07/14 12:28:25;;;;;;;;;;;35.60;39.40;;;;;;5040808;28;20043;-77
2022/07/14 12:30:52;;;;;;;;;;;35.30;37.00;;;;;;5035463;28;20043;-77
2022/07/14 12:33:21;;;;;;;;;;;36.30;37.90;;;;;;5031070;28;19909;-77
2022/07/14 12:35:47;;;;;;;;;;;37.10;37.40;;;;;;5032574;28;19920;-75
2022/07/14 12:38:13;;;;;;;;;;;37.20;35.20;;;;;;5030580;28;19916;-76
2022/07/14 12:40:39;;;;;;;;;;;38.50;35.10;;;;;;5033683;28;20337;-76
2022/07/14 12:43:07;;;;;;;;;;;38.80;33.80;;;;;;5031798;28;19913;-76
2022/07/14 12:45:52;;;;;;;;;;;38.00;34.30;;;;;;5032342;28;19913;-77
2022/07/14 12:48:18;;;;;;;;;;;36.90;37.40;;;;;;5032514;28;19909;-77
2022/07/14 12:50:44;;;;;;;;;;;34.80;38.00;;;;;;5033788;28;19920;-74
2022/07/14 12:53:10;;;;;;;;;;;34.60;40.00;;;;;;5032536;28;19909;-77
2022/07/14 12:55:37;;;;;;;;;;;35.90;36.70;;;;;;5025460;28;19995;-77
2022/07/14 12:58:03;;;;;;;;;;;35.20;40.60;;;;;;5035920;28;19913;-77
2022/07/14 13:00:31;;;;;;;;;;;34.50;39.10;;;;;;5052821;28;20328;-77
2022/07/14 13:03:13;;;;;;;;;;;34.70;37.90;;;;;;5051860;28;19912;-77
2022/07/14 13:05:46;;;;;;;;;;;35.10;38.00;;;;;;5052072;28;20120;-77
2022/07/14 13:08:27;;;;;;;;;;;33.80;39.30;;;;;;5050955;28;19958;-76
2022/07/14 13:10:56;;;;;;;;;;;35.90;37.00;;;;;;5051933;28;19924;-77
2022/07/14 13:13:32;;;;;;;;;;;35.20;37.10;;;;;;5050750;28;19915;-76
2022/07/14 13:16:16;;;;;;;;;;;33.60;38.60;;;;;;5052148;28;19962;-76
2022/07/14 13:19:00;;;;;;;;;;;34.00;38.60;;;;;;5052186;28;19916;-77
2022/07/14 13:21:44;;;;;;;;;;;34.60;39.70;;;;;;5032166;28;19916;-77
2022/07/14 13:24:15;;;;;;;;;;;35.00;38.30;;;;;;5036660;28;19959;-77
2022/07/14 13:26:41;;;;;;;;;;;33.00;39.80;;;;;;5055136;28;19909;-77
2022/07/14 13:29:07;;;;;;;;;;;32.80;40.60;;;;;;5055919;28;19955;-78
2022/07/14 13:31:33;;;;;;;;;;;32.50;42.40;;;;;;5055464;28;19963;-77
2022/07/14 13:33:58;;;;;;;;;;;32.40;42.60;;;;;;5055320;28;20342;-77
2022/07/14 13:36:25;;;;;;;;;;;33.50;42.50;;;;;;5055451;28;19913;-78
2022/07/14 13:38:50;;;;;;;;;;;35.10;40.80;;;;;;5055054;28;20006;-77
2022/07/14 13:41:17;;;;;;;;;;;32.80;41.80;;;;;;5055634;28;19909;-76
2022/07/14 13:43:43;;;;;;;;;;;32.30;44.60;;;;;;5055021;28;20325;-77
2022/07/14 13:46:09;;;;;;;;;;;32.30;43.80;;;;;;5056063;28;19967;-77
2022/07/14 13:48:36;;;;;;;;;;;32.20;42.50;;;;;;5055039;28;19928;-77
2022/07/14 13:53:45;;;;;;;;;;;32.10;45.30;;;;;;5039884;28;19967;-78
2022/07/14 13:56:11;;;;;;;;;;;34.20;42.10;;;;;;5033889;28;19909;-77
2022/07/14 13:58:36;;;;;;;;;;;35.20;39.20;;;;;;5036490;28;19955;-76
2022/07/14 14:01:02;;;;;;;;;;;34.90;41.00;;;;;;5036015;28;20399;-75
2022/07/14 14:03:28;;;;;;;;;;;33.30;42.30;;;;;;5030221;28;19980;-78
2022/07/14 14:05:56;;;;;;;;;;;36.40;39.60;;;;;;5034793;28;19913;-77
2022/07/14 14:08:22;;;;;;;;;;;33.20;40.80;;;;;;5034811;28;19917;-77
2022/07/14 14:10:48;;;;;;;;;;;31.80;45.00;;;;;;5035494;28;19917;-78
2022/07/14 14:13:13;;;;;;;;;;;31.40;44.50;;;;;;5035068;28;19913;-76
2022/07/14 14:15:39;;;;;;;;;;;31.40;47.60;;;;;;5036367;28;19948;-77
2022/07/14 14:18:05;;;;;;;;;;;32.30;48.50;;;;;;5039420;28;19909;-78
2022/07/14 14:20:30;;;;;;;;;;;37.50;40.70;;;;;;5040768;28;19910;-78
2022/07/14 14:22:56;;;;;;;;;;;38.10;37.10;;;;;;5037422;28;20350;-78
2022/07/14 14:25:21;;;;;;;;;;;39.70;38.90;;;;;;5040493;28;19917;-78
2022/07/14 14:27:47;;;;;;;;;;;40.80;37.10;;;;;;5038689;28;19913;-77
2022/07/14 14:30:13;;;;;;;;;;;39.40;35.80;;;;;;5040706;28;20313;-78
2022/07/14 14:32:38;;;;;;;;;;;39.70;35.20;;;;;;5040070;28;19945;-78